createdAt,value
2022-12-15T00:02:19.666Z,12.52
2022-12-15T00:05:05.514Z,13.05
2022-12-15T00:07:51.653Z,14.43
2022-12-15T00:10:37.760Z,13.95
2022-12-15T00:13:29.881Z,15.30
2022-12-15T00:16:15.816Z,14.10
2022-12-15T00:19:01.196Z,12.75
2022-12-15T00:21:46.531Z,13.65
2022-12-15T00:24:34.455Z,13.68
2022-12-15T00:27:20.112Z,13.95
2022-12-15T00:30:05.500Z,16.13
2022-12-15T00:32:51.009Z,18.40
2022-12-15T00:35:36.697Z,18.27
2022-12-15T00:38:31.204Z,18.25
2022-12-15T00:41:00.650Z,16.45
2022-12-15T00:43:29.393Z,13.73
2022-12-15T00:46:18.223Z,12.68
2022-12-15T00:48:45.416Z,16.65
2022-12-15T00:51:12.575Z,16.83
2022-12-15T00:53:58.691Z,17.45
2022-12-15T00:56:46.669Z,18.08
2022-12-15T00:59:32.022Z,19.13
2022-12-15T01:02:17.665Z,19.25
2022-12-15T01:05:03.455Z,18.85
2022-12-15T01:07:49.610Z,20.02
2022-12-15T01:10:36.209Z,20.02
2022-12-15T01:13:22.839Z,20.20
2022-12-15T01:16:10.810Z,20.40
2022-12-15T01:18:56.382Z,20.17
2022-12-15T01:21:25.710Z,20.23
2022-12-15T01:23:53.281Z,19.75
2022-12-15T01:26:20.531Z,19.55
2022-12-15T01:28:47.279Z,20.13
2022-12-15T01:31:14.387Z,18.98
2022-12-15T01:33:42.762Z,19.52
2022-12-15T01:36:10.648Z,20.33
2022-12-15T01:38:37.961Z,21.25
2022-12-15T01:41:07.937Z,21.15
2022-12-15T01:43:38.092Z,20.35
2022-12-15T01:46:09.192Z,19.30
2022-12-15T01:48:39.370Z,18.67
2022-12-15T01:51:23.611Z,18.10
2022-12-15T01:54:19.845Z,15.88
2022-12-15T01:56:54.982Z,16.75
2022-12-15T01:59:28.800Z,16.83
2022-12-15T02:01:55.627Z,16.75
2022-12-15T02:04:23.732Z,16.08
2022-12-15T02:06:53.111Z,17.30
2022-12-15T02:09:24.406Z,15.82
2022-12-15T02:12:06.210Z,16.42
2022-12-15T02:14:47.183Z,16.60
2022-12-15T02:17:37.158Z,16.67
2022-12-15T02:20:42.471Z,15.82
2022-12-15T02:23:32.360Z,16.80
2022-12-15T02:26:28.903Z,17.85
2022-12-15T02:29:31.807Z,15.52
2022-12-15T02:32:09.501Z,16.77
2022-12-15T02:34:44.790Z,17.00
2022-12-15T02:37:16.304Z,18.33
2022-12-15T02:39:43.309Z,17.10
2022-12-15T02:42:11.259Z,18.88
2022-12-15T02:44:59.436Z,18.52
2022-12-15T02:47:31.913Z,19.98
2022-12-15T02:50:35.305Z,19.63
2022-12-15T02:53:26.272Z,19.73
2022-12-15T02:55:59.195Z,19.15
2022-12-15T02:58:40.282Z,17.95
2022-12-15T03:01:24.982Z,17.93
2022-12-15T03:03:52.728Z,18.10
2022-12-15T03:06:20.415Z,17.02
2022-12-15T03:08:47.136Z,17.58
2022-12-15T03:11:13.810Z,17.02
2022-12-15T03:13:40.493Z,18.88
2022-12-15T03:16:07.514Z,18.08
2022-12-15T03:18:34.243Z,17.38
2022-12-15T03:21:01.023Z,17.45
2022-12-15T03:23:30.626Z,17.80
2022-12-15T03:25:57.747Z,19.10
2022-12-15T03:28:26.845Z,18.80
2022-12-15T03:30:56.775Z,19.23
2022-12-15T03:33:23.529Z,18.60
2022-12-15T03:35:51.243Z,19.60
2022-12-15T03:38:18.517Z,17.92
2022-12-15T03:40:45.287Z,18.30
2022-12-15T03:43:12.088Z,17.17
2022-12-15T03:45:38.904Z,17.27
2022-12-15T03:48:05.791Z,16.45
2022-12-15T03:50:32.665Z,16.05
2022-12-15T03:53:01.886Z,17.35
2022-12-15T03:55:29.170Z,16.42
2022-12-15T03:57:56.632Z,16.15
2022-12-15T04:00:26.450Z,14.98
2022-12-15T04:02:53.703Z,15.50
2022-12-15T04:05:27.257Z,16.52
2022-12-15T04:07:55.575Z,15.27
2022-12-15T04:10:26.254Z,16.45
2022-12-15T04:12:58.582Z,17.17
2022-12-15T04:15:26.032Z,15.55
2022-12-15T04:17:52.839Z,16.63
2022-12-15T04:20:20.221Z,15.25
2022-12-15T04:22:50.744Z,15.23
2022-12-15T04:25:39.782Z,16.17
2022-12-15T04:28:25.937Z,15.43
2022-12-15T04:31:19.568Z,17.05
2022-12-15T04:34:09.183Z,15.98
2022-12-15T04:36:57.157Z,14.32
2022-12-15T04:39:42.697Z,14.27
2022-12-15T04:42:28.385Z,15.00
2022-12-15T04:45:20.758Z,14.80
2022-12-15T04:48:06.941Z,14.43
2022-12-15T04:50:52.458Z,14.15
2022-12-15T04:53:39.000Z,13.18
2022-12-15T04:56:29.547Z,13.52
2022-12-15T04:59:14.922Z,13.60
2022-12-15T05:02:00.536Z,14.30
2022-12-15T05:04:48.391Z,13.05
2022-12-15T05:07:34.330Z,13.18
2022-12-15T05:10:19.986Z,13.73
2022-12-15T05:13:05.327Z,14.10
2022-12-15T05:15:51.857Z,14.77
2022-12-15T05:18:37.621Z,16.50
2022-12-15T05:21:23.002Z,15.70
2022-12-15T05:24:08.371Z,16.08
2022-12-15T05:26:53.941Z,15.20
2022-12-15T05:29:40.113Z,15.02
2022-12-15T05:32:08.198Z,15.45
2022-12-15T05:34:36.541Z,14.02
2022-12-15T05:37:05.082Z,14.60
2022-12-15T05:39:31.778Z,14.02
2022-12-15T05:41:58.469Z,14.38
2022-12-15T05:44:26.033Z,13.43
2022-12-15T05:46:53.338Z,12.80
2022-12-15T05:49:20.672Z,13.45
2022-12-15T05:51:48.126Z,13.77
2022-12-15T05:54:17.304Z,14.32
2022-12-15T05:56:50.523Z,14.40
2022-12-15T05:59:18.991Z,13.77
2022-12-15T06:01:46.123Z,14.23
2022-12-15T06:04:13.518Z,12.77
2022-12-15T06:06:41.402Z,12.98
2022-12-15T06:09:10.939Z,13.07
2022-12-15T06:11:37.749Z,13.43
2022-12-15T06:14:04.706Z,14.20
2022-12-15T06:16:31.939Z,13.43
2022-12-15T06:19:03.288Z,14.82
2022-12-15T06:21:33.103Z,14.68
2022-12-15T06:24:00.852Z,12.93
2022-12-15T06:26:28.492Z,12.93
2022-12-15T06:28:57.291Z,12.52
2022-12-15T06:31:25.515Z,13.63
2022-12-15T06:34:01.066Z,13.00
2022-12-15T06:36:30.661Z,14.05
2022-12-15T06:39:03.206Z,13.38
2022-12-15T06:41:30.925Z,13.70
2022-12-15T06:43:58.395Z,15.00
2022-12-15T06:46:26.473Z,12.93
2022-12-15T06:48:53.613Z,13.18
2022-12-15T06:51:20.549Z,13.40
2022-12-15T06:53:54.053Z,12.73
2022-12-15T06:56:32.506Z,12.95
2022-12-15T06:59:00.003Z,12.90
2022-12-15T07:01:26.803Z,12.63
2022-12-15T07:03:54.518Z,11.98
2022-12-15T07:06:21.887Z,12.20
2022-12-15T07:08:52.511Z,12.48
2022-12-15T07:11:21.005Z,12.27
2022-12-15T07:13:52.198Z,12.50
2022-12-15T07:16:19.943Z,11.30
2022-12-15T07:18:46.801Z,10.93
2022-12-15T07:21:16.026Z,11.18
2022-12-15T07:24:01.355Z,11.25
2022-12-15T07:26:31.000Z,11.27
2022-12-15T07:28:57.688Z,9.70
2022-12-15T07:31:24.468Z,10.75
2022-12-15T07:33:52.555Z,10.23
2022-12-15T07:36:22.167Z,10.80
2022-12-15T07:38:51.615Z,10.23
2022-12-15T07:41:20.235Z,10.93
2022-12-15T07:43:47.654Z,10.20
2022-12-15T07:46:15.548Z,12.10
2022-12-15T07:48:42.332Z,10.68
2022-12-15T07:51:17.194Z,12.95
2022-12-15T07:53:46.640Z,11.15
2022-12-15T07:56:13.787Z,12.15
2022-12-15T07:58:40.511Z,13.15
2022-12-15T08:01:10.445Z,12.75
2022-12-15T08:03:38.769Z,12.07
2022-12-15T08:06:08.044Z,14.18
2022-12-15T08:08:35.856Z,14.73
2022-12-15T08:11:08.061Z,14.82
2022-12-15T08:16:22.846Z,13.93
2022-12-15T08:18:49.618Z,15.38
2022-12-15T08:21:16.418Z,15.20
2022-12-15T08:23:43.119Z,14.80
2022-12-15T08:26:15.456Z,14.50
2022-12-15T08:28:43.216Z,15.95
2022-12-15T08:31:16.699Z,14.68
2022-12-15T08:33:44.724Z,15.82
2022-12-15T08:36:13.719Z,14.82
2022-12-15T08:38:41.883Z,16.40
2022-12-15T08:41:10.840Z,15.55
2022-12-15T08:43:44.051Z,16.08
2022-12-15T08:46:14.979Z,17.15
2022-12-15T08:48:41.993Z,17.25
2022-12-15T08:51:09.743Z,15.13
2022-12-15T08:53:36.920Z,15.35
2022-12-15T08:56:06.093Z,13.50
2022-12-15T08:58:33.336Z,13.13
2022-12-15T09:01:19.024Z,13.35
2022-12-15T09:03:50.350Z,13.73
2022-12-15T09:06:20.137Z,13.55
2022-12-15T09:08:50.097Z,12.93
2022-12-15T09:11:17.901Z,13.50
2022-12-15T09:13:46.802Z,14.23
2022-12-15T09:16:16.758Z,13.68
2022-12-15T09:18:45.888Z,13.25
2022-12-15T09:21:15.835Z,13.40
2022-12-15T09:23:43.162Z,13.95
2022-12-15T09:26:12.839Z,13.60
2022-12-15T09:28:42.686Z,13.73
2022-12-15T09:31:21.917Z,13.75
2022-12-15T09:33:51.054Z,14.45
2022-12-15T09:36:18.133Z,13.63
2022-12-15T09:38:45.238Z,12.95
2022-12-15T09:41:23.382Z,12.50
2022-12-15T09:43:58.738Z,11.05
2022-12-15T09:47:05.795Z,10.70
2022-12-15T09:49:55.664Z,9.40
2022-12-15T09:52:30.142Z,8.23
2022-12-15T09:54:58.713Z,8.18
2022-12-15T09:57:45.013Z,8.93
2022-12-15T10:00:21.274Z,9.13
2022-12-15T10:03:16.275Z,8.40
2022-12-15T10:06:07.259Z,9.35
2022-12-15T10:08:33.915Z,8.98
2022-12-15T10:11:18.519Z,10.25
2022-12-15T10:14:14.247Z,9.55
2022-12-15T10:16:53.205Z,8.98
2022-12-15T10:19:36.796Z,9.90
2022-12-15T10:22:10.425Z,9.52
2022-12-15T10:25:08.719Z,10.38
2022-12-15T10:27:47.371Z,11.60
2022-12-15T10:30:16.623Z,11.38
2022-12-15T10:32:58.788Z,10.88
2022-12-15T10:35:35.085Z,11.50
2022-12-15T10:38:07.023Z,12.65
2022-12-15T10:40:50.256Z,13.02
2022-12-15T10:43:38.975Z,12.93
2022-12-15T10:46:19.301Z,13.90
2022-12-15T10:49:08.293Z,13.85
2022-12-15T10:51:44.315Z,15.18
2022-12-15T10:54:16.562Z,37.65
2022-12-15T10:56:46.260Z,30.60
2022-12-15T10:59:23.029Z,19.13
2022-12-15T11:01:51.069Z,14.30
2022-12-15T11:04:30.609Z,14.30
2022-12-15T11:07:03.146Z,14.30
2022-12-15T11:09:35.000Z,13.05
2022-12-15T11:14:52.956Z,18.50
2022-12-15T11:17:21.860Z,10.15
2022-12-15T11:20:03.134Z,9.68
2022-12-15T11:22:51.381Z,6.95
2022-12-15T11:25:42.887Z,7.85
2022-12-15T11:28:28.581Z,8.85
2022-12-15T11:31:16.052Z,8.35
2022-12-15T11:33:42.729Z,7.70
2022-12-15T11:36:10.142Z,7.55
2022-12-15T11:39:13.568Z,7.65
2022-12-15T11:42:00.106Z,7.97
2022-12-15T11:44:51.317Z,11.07
2022-12-15T11:47:35.990Z,9.00
2022-12-15T11:50:17.270Z,12.82
2022-12-15T11:53:03.805Z,8.30
2022-12-15T11:55:48.709Z,13.27
2022-12-15T11:58:39.784Z,10.27
2022-12-15T12:01:27.578Z,5.50
2022-12-15T12:04:11.453Z,5.30
2022-12-15T12:07:18.149Z,4.60
2022-12-15T12:10:02.811Z,14.65
2022-12-15T12:12:45.301Z,4.20
2022-12-15T12:15:49.135Z,4.05
2022-12-15T12:18:25.514Z,3.75
2022-12-15T12:21:15.435Z,4.43
2022-12-15T12:24:02.356Z,4.65
2022-12-15T12:26:38.157Z,3.70
2022-12-15T12:29:26.331Z,2.90
2022-12-15T12:32:32.093Z,3.47
2022-12-15T12:35:31.523Z,2.90
2022-12-15T12:38:04.775Z,2.42
2022-12-15T12:40:46.487Z,2.45
2022-12-15T12:43:30.591Z,2.00
2022-12-15T12:46:10.151Z,3.22
2022-12-15T12:48:56.112Z,3.22
2022-12-15T12:51:33.020Z,2.78
2022-12-15T12:54:00.966Z,1.88
2022-12-15T12:56:37.015Z,2.00
2022-12-15T12:59:25.271Z,2.15
2022-12-15T13:01:52.115Z,1.80
2022-12-15T13:05:11.710Z,1.70
2022-12-15T13:07:44.338Z,1.70
2022-12-15T13:10:21.235Z,1.80
2022-12-15T13:12:51.955Z,1.60
2022-12-15T13:15:30.469Z,1.52
2022-12-15T13:18:07.077Z,2.03
2022-12-15T13:20:39.987Z,2.08
2022-12-15T13:23:21.833Z,1.65
2022-12-15T13:26:00.372Z,1.30
2022-12-15T13:28:44.365Z,1.90
2022-12-15T13:31:27.643Z,3.60
2022-12-15T13:34:00.996Z,3.13
2022-12-15T13:36:39.862Z,2.15
2022-12-15T13:39:12.347Z,2.90
2022-12-15T13:41:54.543Z,4.80
2022-12-15T13:44:35.556Z,1.88
2022-12-15T13:47:16.499Z,2.25
2022-12-15T13:50:02.086Z,1.25
2022-12-15T13:56:04.117Z,1.67
2022-12-15T13:58:39.367Z,1.25
2022-12-15T14:01:28.666Z,1.35
2022-12-15T14:04:04.631Z,0.88
2022-12-15T14:06:38.575Z,1.42
2022-12-15T14:09:06.467Z,1.25
2022-12-15T14:11:52.576Z,1.50
2022-12-15T14:14:29.914Z,1.80
2022-12-15T14:17:00.499Z,1.60
2022-12-15T14:19:42.697Z,1.77
2022-12-15T14:22:31.971Z,1.70
2022-12-15T14:25:03.396Z,1.65
2022-12-15T14:27:32.949Z,1.58
2022-12-15T14:30:14.757Z,1.77
2022-12-15T14:32:43.659Z,2.50
2022-12-15T14:35:36.036Z,1.70
2022-12-15T14:38:06.344Z,1.90
2022-12-15T14:40:37.591Z,1.70
2022-12-15T14:43:06.848Z,2.00
2022-12-15T14:45:34.054Z,1.65
2022-12-15T14:50:58.124Z,5.63
2022-12-15T14:53:31.980Z,4.50
2022-12-15T14:56:27.609Z,4.80
2022-12-15T14:59:04.175Z,4.57
2022-12-15T15:01:41.653Z,1.95
2022-12-15T15:04:29.423Z,2.35
2022-12-15T15:06:58.433Z,1.45
2022-12-15T15:09:54.883Z,1.50
2022-12-15T15:12:24.656Z,1.45
2022-12-15T15:15:01.243Z,1.60
2022-12-15T15:17:33.559Z,1.55
2022-12-15T15:20:07.773Z,2.08
2022-12-15T15:22:45.717Z,2.20
2022-12-15T15:25:39.962Z,1.95
2022-12-15T15:28:21.444Z,2.10
2022-12-15T15:30:56.516Z,1.73
2022-12-15T15:33:24.899Z,2.30
2022-12-15T15:35:54.940Z,2.25
2022-12-15T15:38:35.429Z,2.05
2022-12-15T15:41:19.614Z,2.25
2022-12-15T15:43:46.708Z,2.20
2022-12-15T15:46:19.791Z,2.38
2022-12-15T15:48:50.338Z,2.42
2022-12-15T15:51:17.630Z,2.10
2022-12-15T15:53:45.050Z,2.10
2022-12-15T15:56:14.764Z,2.22
2022-12-15T15:58:43.705Z,2.00
2022-12-15T16:01:13.343Z,1.98
2022-12-15T16:03:41.357Z,2.40
2022-12-15T16:06:17.191Z,2.70
2022-12-15T16:08:45.835Z,2.72
2022-12-15T16:11:12.532Z,2.50
2022-12-15T16:13:39.463Z,2.50
2022-12-15T16:16:07.135Z,2.40
2022-12-15T16:18:35.288Z,2.70
2022-12-15T16:21:02.245Z,2.70
2022-12-15T16:23:29.905Z,2.75
2022-12-15T16:25:59.137Z,2.47
2022-12-15T16:28:29.234Z,3.00
2022-12-15T16:30:58.768Z,2.90
2022-12-15T16:33:25.628Z,4.68
2022-12-15T16:35:52.579Z,4.70
2022-12-15T16:38:27.927Z,3.75
2022-12-15T16:40:55.775Z,3.80
2022-12-15T16:43:32.901Z,4.18
2022-12-15T16:46:03.291Z,5.20
2022-12-15T16:48:30.365Z,5.03
2022-12-15T16:50:59.246Z,4.32
2022-12-15T16:53:32.373Z,4.55
2022-12-15T16:56:02.142Z,4.60
2022-12-15T16:58:30.041Z,4.80
2022-12-15T17:00:57.142Z,4.28
2022-12-15T17:03:27.621Z,6.22
2022-12-15T17:06:01.094Z,4.05
2022-12-15T17:08:35.057Z,3.40
2022-12-15T17:11:02.215Z,4.07
2022-12-15T17:13:43.707Z,4.25
2022-12-15T17:16:15.753Z,5.13
2022-12-15T17:18:44.322Z,5.00
2022-12-15T17:21:20.692Z,5.82
2022-12-15T17:23:53.380Z,5.53
2022-12-15T17:26:31.742Z,6.00
2022-12-15T17:29:16.430Z,5.68
2022-12-15T17:31:43.185Z,5.72
2022-12-15T17:34:23.774Z,5.55
2022-12-15T17:36:51.310Z,27.33
2022-12-15T17:39:20.258Z,6.20
2022-12-15T17:42:04.361Z,5.65
2022-12-15T17:44:36.168Z,4.50
2022-12-15T17:47:06.514Z,4.15
2022-12-15T17:49:36.378Z,2.47
2022-12-15T17:52:28.090Z,2.17
2022-12-15T17:54:55.737Z,2.50
2022-12-15T17:57:22.699Z,2.33
2022-12-15T17:59:49.355Z,2.10
2022-12-15T18:02:16.205Z,2.75
2022-12-15T18:04:43.559Z,3.10
2022-12-15T18:07:21.873Z,2.90
2022-12-15T18:09:50.079Z,3.60
2022-12-15T18:12:22.265Z,3.03
2022-12-15T18:14:49.539Z,2.85
2022-12-15T18:17:16.571Z,3.58
2022-12-15T18:19:43.277Z,2.60
2022-12-15T18:22:21.971Z,3.70
2022-12-15T18:24:50.191Z,3.88
2022-12-15T18:27:28.889Z,3.90
2022-12-15T18:29:56.622Z,3.78
2022-12-15T18:32:25.864Z,3.83
2022-12-15T18:34:53.780Z,5.18
2022-12-15T18:37:22.959Z,4.53
2022-12-15T18:39:50.571Z,4.30
2022-12-15T18:42:19.607Z,5.05
2022-12-15T18:44:48.815Z,4.38
2022-12-15T18:47:21.213Z,4.40
2022-12-15T18:49:48.122Z,4.68
2022-12-15T18:52:19.924Z,5.07
2022-12-15T18:57:33.734Z,4.55
2022-12-15T19:00:24.615Z,6.35
2022-12-15T19:02:52.932Z,8.23
2022-12-15T19:05:32.427Z,9.18
2022-12-15T19:08:27.351Z,8.18
2022-12-15T19:11:03.981Z,10.13
2022-12-15T19:13:34.090Z,8.68
2022-12-15T19:16:02.933Z,8.25
2022-12-15T19:18:48.468Z,7.70
2022-12-15T19:21:49.532Z,7.00
2022-12-15T19:24:46.405Z,5.88
2022-12-15T19:27:14.813Z,6.13
2022-12-15T19:29:42.077Z,8.00
2022-12-15T19:32:09.361Z,5.57
2022-12-15T19:34:36.133Z,5.40
2022-12-15T19:37:06.003Z,5.43
2022-12-15T19:39:35.139Z,6.70
2022-12-15T19:42:06.559Z,6.95
2022-12-15T19:44:36.790Z,6.32
2022-12-15T19:47:11.394Z,7.38
2022-12-15T19:49:38.119Z,7.55
2022-12-15T19:52:05.506Z,6.05
2022-12-15T19:54:32.443Z,6.30
2022-12-15T19:56:59.199Z,6.20
2022-12-15T19:59:28.174Z,6.70
2022-12-15T20:01:55.136Z,6.55
2022-12-15T20:04:24.149Z,8.80
2022-12-15T20:06:51.539Z,6.50
2022-12-15T20:09:19.307Z,7.20
2022-12-15T20:11:46.504Z,6.63
2022-12-15T20:14:15.542Z,8.07
2022-12-15T20:16:42.490Z,8.60
2022-12-15T20:19:09.440Z,9.43
2022-12-15T20:21:38.705Z,10.25
2022-12-15T20:24:10.612Z,10.02
2022-12-15T20:26:39.179Z,9.25
2022-12-15T20:29:24.708Z,8.40
2022-12-15T20:31:53.076Z,8.05
2022-12-15T20:34:19.830Z,7.03
2022-12-15T20:36:47.451Z,7.22
2022-12-15T20:39:25.899Z,7.68
2022-12-15T20:41:53.528Z,7.47
2022-12-15T20:44:20.355Z,7.90
2022-12-15T20:46:47.425Z,7.82
2022-12-15T20:49:17.511Z,10.55
2022-12-15T20:51:44.993Z,8.73
2022-12-15T20:54:23.460Z,7.90
2022-12-15T20:56:50.832Z,8.32
2022-12-15T20:59:18.326Z,8.90
2022-12-15T21:01:45.285Z,10.45
2022-12-15T21:04:25.997Z,10.55
2022-12-15T21:06:54.984Z,9.95
2022-12-15T21:09:25.303Z,10.68
2022-12-15T21:11:54.007Z,8.90
2022-12-15T21:14:23.450Z,10.05
2022-12-15T21:16:50.702Z,10.85
2022-12-15T21:19:21.982Z,10.00
2022-12-15T21:24:25.163Z,9.88
2022-12-15T21:26:52.624Z,10.13
2022-12-15T21:29:22.615Z,9.23
2022-12-15T21:31:49.836Z,6.18
2022-12-15T21:34:16.831Z,6.85
2022-12-15T21:36:46.449Z,6.95
2022-12-15T21:39:21.689Z,7.25
2022-12-15T21:41:48.409Z,7.75
2022-12-15T21:44:18.389Z,7.68
2022-12-15T21:46:45.420Z,8.10
2022-12-15T21:49:20.344Z,7.93
2022-12-15T21:52:02.260Z,7.47
2022-12-15T21:57:00.901Z,7.70
2022-12-15T21:59:30.278Z,7.60
2022-12-15T22:01:57.125Z,6.88
2022-12-15T22:04:31.380Z,7.65
2022-12-15T22:06:58.160Z,7.95
2022-12-15T22:09:24.857Z,8.18
2022-12-15T22:11:54.387Z,8.20
2022-12-15T22:14:26.657Z,7.40
2022-12-15T22:16:56.486Z,6.88
2022-12-15T22:19:23.860Z,6.63
2022-12-15T22:21:51.033Z,7.03
2022-12-15T22:24:19.389Z,6.45
2022-12-15T22:26:47.253Z,7.05
2022-12-15T22:29:20.394Z,6.75
2022-12-15T22:31:48.213Z,6.00
2022-12-15T22:34:17.728Z,5.85
2022-12-15T22:36:45.214Z,5.78
2022-12-15T22:39:12.505Z,5.30
2022-12-15T22:41:44.612Z,6.20
2022-12-15T22:44:26.125Z,5.43
2022-12-15T22:46:56.610Z,5.38
2022-12-15T22:49:28.869Z,5.45
2022-12-15T22:51:55.522Z,4.85
2022-12-15T22:54:25.394Z,5.05
2022-12-15T22:57:03.920Z,4.80
2022-12-15T22:59:41.168Z,4.68
2022-12-15T23:02:09.020Z,3.88
2022-12-15T23:04:36.063Z,3.78
2022-12-15T23:07:05.057Z,3.70
2022-12-15T23:09:31.958Z,3.78
2022-12-15T23:12:01.837Z,3.65
2022-12-15T23:14:47.124Z,3.38
2022-12-15T23:17:14.219Z,3.40
2022-12-15T23:19:45.116Z,3.47
2022-12-15T23:22:12.002Z,3.23
2022-12-15T23:24:39.091Z,2.83
2022-12-15T23:27:09.240Z,2.70
2022-12-15T23:29:38.301Z,2.55
2022-12-15T23:32:05.195Z,2.28
2022-12-15T23:34:31.857Z,2.03
2022-12-15T23:36:58.731Z,2.38
2022-12-15T23:39:25.427Z,2.38
2022-12-15T23:41:52.099Z,1.80
2022-12-15T23:44:18.756Z,2.33
2022-12-15T23:46:46.740Z,1.70
2022-12-15T23:49:13.577Z,2.22
2022-12-15T23:51:40.221Z,2.45
2022-12-15T23:54:07.097Z,2.60
2022-12-15T23:56:33.875Z,2.03
2022-12-15T23:59:00.525Z,2.55
